Time;durP1;ratioP1;P1;durP2;ratioP2;P2;SDS_P1;SDS_P2;PMS_P1;PMS_P2;Temp;Humidity;BMP_temperature;BMP_pressure;BME280_temperature;BME280_humidity;BME280_pressure;Samples;Min_cycle;Max_cycle;Signal;HPM_P1;HPM_P2
2023/06/08 00:00:09;;;;;;;16.10;6.28;;;12.90;99.90;;;;;;5008609;28;20053;-81
2023/06/08 00:02:35;;;;;;;14.30;6.13;;;12.90;99.90;;;;;;4991325;28;20050;-81
2023/06/08 00:05:02;;;;;;;14.32;5.45;;;12.90;99.90;;;;;;4991731;28;20046;-82
2023/06/08 00:07:28;;;;;;;13.38;5.07;;;12.90;99.90;;;;;;5008690;28;20068;-81
2023/06/08 00:09:56;;;;;;;17.45;5.35;;;12.90;99.90;;;;;;5009647;28;20046;-81
2023/06/08 00:12:22;;;;;;;19.48;6.28;;;14.30;99.90;;;;;;5018653;28;20102;-81
2023/06/08 00:14:47;;;;;;;13.07;5.07;;;13.50;99.90;;;;;;5015406;28;20398;-81
2023/06/08 00:17:13;;;;;;;12.80;5.13;;;12.80;99.90;;;;;;5009919;28;20129;-81
2023/06/08 00:19:39;;;;;;;11.98;4.88;;;12.80;99.90;;;;;;5008195;28;20037;-81
2023/06/08 00:22:07;;;;;;;15.15;5.07;;;12.80;99.90;;;;;;4991326;28;20034;-81
2023/06/08 00:24:33;;;;;;;12.63;5.25;;;12.80;99.90;;;;;;4991146;28;20046;-81
2023/06/08 00:26:59;;;;;;;15.93;5.13;;;12.80;99.90;;;;;;5009002;28;20041;-82
2023/06/08 00:29:25;;;;;;;11.77;4.72;;;12.80;99.90;;;;;;4990309;28;20383;-81
2023/06/08 00:31:51;;;;;;;13.57;6.55;;;12.80;99.90;;;;;;5009048;28;20061;-81
2023/06/08 00:34:17;;;;;;;12.13;5.30;;;14.20;99.90;;;;;;5009228;28;20042;-81
2023/06/08 00:36:44;;;;;;;12.93;5.80;;;12.80;99.90;;;;;;5007889;28;20397;-81
2023/06/08 00:39:10;;;;;;;16.25;6.35;;;13.60;99.90;;;;;;5008874;28;20500;-81
2023/06/08 00:41:37;;;;;;;16.95;6.18;;;13.60;99.90;;;;;;5008011;28;20046;-81
2023/06/08 00:44:07;;;;;;;12.20;6.20;;;12.80;99.90;;;;;;5001351;28;20117;-81
2023/06/08 00:46:36;;;;;;;16.67;7.85;;;12.80;99.90;;;;;;4991079;28;20073;-81
2023/06/08 00:49:03;;;;;;;13.55;7.57;;;12.90;99.90;;;;;;5008255;28;20034;-81
2023/06/08 00:51:35;;;;;;;15.65;6.65;;;12.80;99.90;;;;;;4990639;28;20505;-81
2023/06/08 00:54:02;;;;;;;12.98;7.05;;;13.70;99.90;;;;;;5010135;28;20078;-81
2023/06/08 00:56:31;;;;;;;12.52;7.18;;;12.80;99.90;;;;;;5011718;28;20375;-81
2023/06/08 00:59:00;;;;;;;14.55;6.20;;;14.00;99.90;;;;;;5012266;28;20061;-82
2023/06/08 01:01:30;;;;;;;13.18;6.50;;;14.40;99.90;;;;;;5011860;28;20089;-82
2023/06/08 01:04:05;;;;;;;18.90;7.63;;;12.70;99.90;;;;;;5011217;28;20042;-82
2023/06/08 01:06:35;;;;;;;14.38;6.80;;;13.00;99.90;;;;;;5012416;28;20084;-82
2023/06/08 01:09:04;;;;;;;16.58;6.95;;;12.60;99.90;;;;;;5012104;28;20393;-81
2023/06/08 01:11:36;;;;;;;20.00;7.97;;;12.80;99.90;;;;;;5011160;28;20045;-82
2023/06/08 01:14:13;;;;;;;16.77;8.25;;;12.60;99.90;;;;;;4994666;28;20034;-82
2023/06/08 01:16:44;;;;;;;14.90;7.45;;;12.60;99.90;;;;;;5011201;28;20413;-82
2023/06/08 01:19:17;;;;;;;13.48;7.57;;;13.80;99.90;;;;;;5004305;28;20116;-82
2023/06/08 01:21:57;;;;;;;16.88;7.10;;;12.60;99.90;;;;;;5011905;28;20065;-82
2023/06/08 01:24:30;;;;;;;16.40;7.35;;;12.60;99.90;;;;;;5011588;28;20077;-82
2023/06/08 01:26:59;;;;;;;15.50;6.85;;;13.50;99.90;;;;;;5011761;28;20060;-82
2023/06/08 01:29:33;;;;;;;19.52;8.00;;;13.20;99.90;;;;;;5011289;28;20478;-82
2023/06/08 01:31:59;;;;;;;21.58;7.55;;;13.10;99.90;;;;;;5011175;28;20456;-82
2023/06/08 01:34:25;;;;;;;18.00;7.78;;;12.60;99.90;;;;;;5011764;28;20037;-82
2023/06/08 01:37:14;;;;;;;17.73;7.65;;;12.50;99.90;;;;;;5013572;28;20536;-82
2023/06/08 01:40:03;;;;;;;15.40;8.15;;;12.50;99.90;;;;;;5010468;28;20464;-82
2023/06/08 01:42:30;;;;;;;15.13;7.63;;;12.50;99.90;;;;;;5006401;28;20468;-82
2023/06/08 01:45:05;;;;;;;17.20;8.75;;;12.50;99.90;;;;;;5010915;28;20042;-82
2023/06/08 01:47:45;;;;;;;18.52;8.18;;;12.50;99.90;;;;;;5011581;28;20375;-81
2023/06/08 01:50:11;;;;;;;15.95;7.43;;;12.50;99.90;;;;;;5003831;28;20038;-82
2023/06/08 01:52:39;;;;;;;18.15;7.72;;;13.20;99.90;;;;;;5009925;28;20588;-82
2023/06/08 01:55:16;;;;;;;17.05;7.75;;;14.20;99.90;;;;;;5011732;28;20548;-81
2023/06/08 01:57:43;;;;;;;18.05;7.93;;;12.60;99.90;;;;;;5011076;28;20046;-82
2023/06/08 02:00:09;;;;;;;14.05;7.70;;;12.60;99.90;;;;;;5012504;28;20076;-82
2023/06/08 02:02:37;;;;;;;13.60;7.68;;;12.60;99.90;;;;;;5020465;28;20400;-81
2023/06/08 02:05:04;;;;;;;15.77;8.38;;;12.60;99.90;;;;;;5015374;28;20046;-82
2023/06/08 02:07:30;;;;;;;14.30;6.90;;;12.50;99.90;;;;;;5009977;28;20426;-82
2023/06/08 02:09:55;;;;;;;15.80;6.50;;;12.50;99.90;;;;;;5010281;28;20054;-82
2023/06/08 02:12:21;;;;;;;15.68;6.57;;;13.40;99.90;;;;;;5010996;28;20042;-82
2023/06/08 02:14:46;;;;;;;13.55;6.43;;;13.00;99.90;;;;;;5009851;28;20046;-81
2023/06/08 02:17:13;;;;;;;17.85;6.10;;;14.20;99.90;;;;;;4993140;28;20124;-82
2023/06/08 02:19:39;;;;;;;16.80;5.93;;;12.70;99.90;;;;;;5009803;28;20091;-82
2023/06/08 02:22:05;;;;;;;15.13;6.15;;;12.50;99.90;;;;;;4992257;28;20111;-81
2023/06/08 02:24:30;;;;;;;14.27;5.90;;;12.50;99.90;;;;;;5010539;28;20050;-81
2023/06/08 02:26:56;;;;;;;11.07;5.55;;;12.50;99.90;;;;;;5010012;28;20046;-82
2023/06/08 02:29:23;;;;;;;12.80;5.55;;;12.50;99.90;;;;;;5010031;28;20048;-81
2023/06/08 02:31:49;;;;;;;18.02;5.85;;;12.60;99.90;;;;;;5010235;28;20122;-82
2023/06/08 02:34:15;;;;;;;15.45;6.13;;;14.20;99.90;;;;;;5009996;28;20722;-82
2023/06/08 02:36:42;;;;;;;17.13;6.22;;;12.60;99.90;;;;;;4992638;28;20045;-82
2023/06/08 02:39:08;;;;;;;11.75;5.78;;;12.60;99.90;;;;;;5012827;28;20068;-81
2023/06/08 02:41:33;;;;;;;17.00;5.95;;;12.50;99.90;;;;;;5009499;28;20489;-81
2023/06/08 02:43:59;;;;;;;14.15;6.10;;;12.60;99.90;;;;;;5010395;28;20108;-81
2023/06/08 02:46:25;;;;;;;13.13;6.68;;;12.60;99.90;;;;;;5009789;28;20448;-81
2023/06/08 02:48:51;;;;;;;13.70;7.15;;;12.70;99.90;;;;;;5009279;28;20054;-81
2023/06/08 02:51:17;;;;;;;19.25;7.43;;;13.30;99.90;;;;;;5010363;28;20490;-81
2023/06/08 02:53:42;;;;;;;17.17;6.85;;;14.30;99.90;;;;;;5009436;28;20054;-81
2023/06/08 02:56:09;;;;;;;17.08;8.15;;;12.50;99.90;;;;;;5009775;28;20034;-82
2023/06/08 02:58:36;;;;;;;18.33;7.72;;;14.50;99.90;;;;;;5009190;28;20478;-81
2023/06/08 03:01:02;;;;;;;20.33;7.38;;;12.60;99.90;;;;;;5009527;28;20077;-81
2023/06/08 03:03:29;;;;;;;14.13;7.07;;;12.50;99.90;;;;;;5009358;28;20339;-82
2023/06/08 03:05:58;;;;;;;14.73;7.45;;;12.80;99.90;;;;;;5009341;28;20045;-81
2023/06/08 03:08:27;;;;;;;18.08;6.88;;;12.90;99.90;;;;;;5009407;28;20042;-81
2023/06/08 03:10:53;;;;;;;15.60;6.63;;;14.70;99.90;;;;;;5008756;28;20433;-81
2023/06/08 03:13:18;;;;;;;14.93;6.97;;;14.10;99.90;;;;;;5010112;28;20050;-82
2023/06/08 03:15:46;;;;;;;12.85;6.50;;;12.50;99.90;;;;;;5009384;28;20038;-81
2023/06/08 03:18:11;;;;;;;12.73;6.38;;;12.50;99.90;;;;;;5008774;28;20049;-81
2023/06/08 03:20:37;;;;;;;14.15;6.22;;;12.50;99.90;;;;;;5009191;28;20046;-81
2023/06/08 03:23:04;;;;;;;16.65;6.18;;;13.60;99.90;;;;;;5009456;28;20049;-81
2023/06/08 03:25:30;;;;;;;16.45;6.85;;;12.40;99.90;;;;;;5008942;28;20049;-81
2023/06/08 03:27:56;;;;;;;16.33;6.38;;;13.30;99.90;;;;;;5009349;28;20405;-82
2023/06/08 03:30:21;;;;;;;9.13;5.13;;;13.40;99.90;;;;;;5008344;28;20486;-81
2023/06/08 03:32:51;;;;;;;13.13;5.60;;;12.50;99.90;;;;;;5009503;28;20053;-82
2023/06/08 03:35:18;;;;;;;13.77;5.88;;;12.50;99.90;;;;;;4984363;28;20077;-82
2023/06/08 03:37:43;;;;;;;17.08;5.95;;;12.50;99.90;;;;;;5008377;28;20064;-81
2023/06/08 03:40:09;;;;;;;11.32;5.38;;;12.50;99.90;;;;;;5009727;28;20041;-81
2023/06/08 03:42:35;;;;;;;16.98;6.75;;;12.60;99.90;;;;;;5009234;28;20038;-81
2023/06/08 03:45:00;;;;;;;16.38;5.80;;;12.60;99.90;;;;;;5008944;28;20161;-80
2023/06/08 03:47:26;;;;;;;10.38;5.53;;;12.60;99.90;;;;;;5009904;28;20049;-81
2023/06/08 03:49:52;;;;;;;11.13;5.93;;;12.70;99.90;;;;;;5009643;28;20057;-81
2023/06/08 03:52:18;;;;;;;17.98;6.18;;;12.60;99.90;;;;;;5018733;28;20048;-82
2023/06/08 03:54:45;;;;;;;21.10;6.45;;;14.30;99.90;;;;;;5017376;28;20079;-81
2023/06/08 03:57:10;;;;;;;19.88;6.93;;;13.40;99.90;;;;;;5010240;28;20049;-81
2023/06/08 03:59:37;;;;;;;11.52;5.63;;;12.60;99.90;;;;;;5008066;28;20046;-82
2023/06/08 04:02:03;;;;;;;9.82;5.47;;;12.60;99.90;;;;;;4991641;28;20117;-81
2023/06/08 04:04:29;;;;;;;14.35;6.28;;;12.60;99.90;;;;;;5009027;28;20106;-81
2023/06/08 04:07:00;;;;;;;18.10;6.05;;;12.60;99.90;;;;;;4990676;28;20046;-82
2023/06/08 04:09:27;;;;;;;17.20;6.07;;;13.70;99.90;;;;;;5008926;28;20409;-82
2023/06/08 04:11:53;;;;;;;15.27;6.20;;;14.50;99.90;;;;;;5009381;28;20379;-81
2023/06/08 04:14:18;;;;;;;18.95;6.50;;;12.60;99.90;;;;;;5000912;28;20052;-81
2023/06/08 04:16:44;;;;;;;17.20;6.72;;;13.00;99.90;;;;;;5008792;28;20489;-81
2023/06/08 04:19:09;;;;;;;15.68;5.68;;;12.60;99.90;;;;;;4991837;28;20096;-81
2023/06/08 04:21:36;;;;;;;19.58;6.07;;;12.60;99.90;;;;;;4992458;28;20422;-82
2023/06/08 04:24:01;;;;;;;13.32;5.78;;;12.60;99.90;;;;;;5012271;28;20445;-81
2023/06/08 04:26:29;;;;;;;13.20;5.10;;;12.60;99.90;;;;;;5010540;28;20046;-82
2023/06/08 04:28:54;;;;;;;11.50;5.50;;;12.60;99.90;;;;;;5012258;28;20077;-83
2023/06/08 04:31:20;;;;;;;11.57;5.70;;;12.70;99.90;;;;;;5006034;28;20085;-82
2023/06/08 04:33:47;;;;;;;13.25;5.40;;;12.70;99.90;;;;;;5013001;28;20092;-81
2023/06/08 04:36:13;;;;;;;16.80;6.22;;;12.70;99.90;;;;;;5014357;28;20046;-82
2023/06/08 04:38:41;;;;;;;11.32;5.40;;;12.70;99.90;;;;;;5001227;28;20049;-83
2023/06/08 04:41:07;;;;;;;14.23;5.55;;;12.70;99.90;;;;;;5029918;23;20049;-81
2023/06/08 04:43:34;;;;;;;11.65;5.10;;;12.70;99.90;;;;;;5005450;28;20041;-82
2023/06/08 04:46:04;;;;;;;15.00;5.65;;;12.70;99.90;;;;;;5043593;28;20083;-82
2023/06/08 04:48:33;;;;;;;41.00;27.05;;;13.70;99.90;;;;;;5041102;28;20120;-82
2023/06/08 04:51:01;;;;;;;20.55;10.75;;;13.80;99.90;;;;;;5041209;28;20063;-80
2023/06/08 04:53:27;;;;;;;13.43;7.55;;;12.80;99.90;;;;;;5046381;28;20041;-80
2023/06/08 04:55:59;;;;;;;15.30;5.75;;;13.40;99.90;;;;;;5043661;28;20049;-80
2023/06/08 04:58:28;;;;;;;14.90;5.85;;;14.10;99.90;;;;;;5006610;28;20399;-81
2023/06/08 05:00:54;;;;;;;16.45;5.78;;;12.80;99.90;;;;;;5039391;28;20091;-81
2023/06/08 05:03:20;;;;;;;13.75;5.35;;;12.80;99.90;;;;;;5040345;28;20084;-80
2023/06/08 05:05:46;;;;;;;12.05;5.25;;;12.80;99.90;;;;;;5022322;28;20053;-81
2023/06/08 05:08:12;;;;;;;11.25;5.70;;;13.20;99.90;;;;;;5042742;28;20128;-82
2023/06/08 05:10:38;;;;;;;11.93;4.80;;;14.90;99.90;;;;;;5043185;28;20116;-81
2023/06/08 05:13:03;;;;;;;11.85;4.57;;;12.80;99.90;;;;;;5025875;28;20124;-82
2023/06/08 05:15:32;;;;;;;14.05;5.55;;;13.10;99.90;;;;;;5022207;28;20041;-82
2023/06/08 05:17:58;;;;;;;18.17;5.28;;;14.10;99.90;;;;;;5021957;28;20041;-81
2023/06/08 05:20:26;;;;;;;25.38;13.77;;;12.90;99.90;;;;;;5024978;28;20123;-82
2023/06/08 05:22:53;;;;;;;18.38;10.55;;;12.90;99.90;;;;;;5040630;28;20440;-81
2023/06/08 05:25:19;;;;;;;15.57;5.90;;;13.80;99.90;;;;;;5009687;28;20048;-81
2023/06/08 05:27:44;;;;;;;13.63;4.50;;;14.70;99.90;;;;;;5044705;28;20032;-81
2023/06/08 05:30:11;;;;;;;13.82;4.95;;;13.70;99.90;;;;;;5041603;28;20437;-82
2023/06/08 05:32:36;;;;;;;15.13;4.85;;;13.00;99.90;;;;;;5022687;28;20041;-81
2023/06/08 05:35:03;;;;;;;18.38;5.10;;;13.90;99.90;;;;;;5049890;28;20037;-81
2023/06/08 05:37:29;;;;;;;14.63;6.30;;;13.00;99.90;;;;;;5043245;28;20089;-82
2023/06/08 05:39:55;;;;;;;11.45;4.68;;;13.00;99.90;;;;;;5042585;28;20123;-81
2023/06/08 05:42:20;;;;;;;17.92;6.13;;;13.10;99.90;;;;;;5051082;28;20203;-80
2023/06/08 05:44:47;;;;;;;12.88;4.53;;;14.30;99.90;;;;;;5047428;28;20497;-80
2023/06/08 05:47:12;;;;;;;12.40;5.18;;;13.10;99.90;;;;;;5040374;28;20060;-81
2023/06/08 05:49:38;;;;;;;20.73;10.18;;;13.10;99.90;;;;;;5038899;28;20485;-81
2023/06/08 05:52:04;;;;;;;18.27;5.72;;;13.10;99.90;;;;;;5039066;28;20044;-81
2023/06/08 05:54:30;;;;;;;14.10;5.65;;;13.20;99.90;;;;;;5042947;28;20037;-81
2023/06/08 05:56:56;;;;;;;13.23;4.97;;;13.20;99.90;;;;;;5024896;28;20432;-81
2023/06/08 05:59:22;;;;;;;12.45;5.30;;;13.20;99.90;;;;;;5038728;28;20098;-81
2023/06/08 06:01:49;;;;;;;12.88;5.20;;;14.40;99.90;;;;;;5038947;28;20042;-81
2023/06/08 06:04:15;;;;;;;11.57;4.45;;;13.20;99.90;;;;;;5040601;28;20041;-81
2023/06/08 06:06:41;;;;;;;12.85;5.07;;;14.50;99.90;;;;;;5023428;28;20036;-81
2023/06/08 06:09:07;;;;;;;14.88;5.47;;;13.20;99.90;;;;;;5041953;28;20156;-81
2023/06/08 06:11:32;;;;;;;12.20;5.05;;;13.20;99.90;;;;;;5007658;28;20120;-80
2023/06/08 06:13:58;;;;;;;18.40;5.13;;;13.20;99.90;;;;;;5042748;28;20037;-81
2023/06/08 06:16:24;;;;;;;16.65;4.93;;;13.30;99.90;;;;;;5041454;28;20081;-82
2023/06/08 06:18:50;;;;;;;12.65;5.00;;;13.30;99.90;;;;;;5043689;28;20042;-82
2023/06/08 06:21:16;;;;;;;11.13;4.85;;;13.70;99.90;;;;;;5039832;28;20042;-81
2023/06/08 06:23:44;;;;;;;15.98;5.20;;;14.80;99.90;;;;;;5041211;28;20044;-81
2023/06/08 06:26:10;;;;;;;12.35;4.78;;;15.10;99.90;;;;;;5041061;28;20088;-82
2023/06/08 06:28:35;;;;;;;17.55;5.60;;;13.30;99.90;;;;;;5016040;28;20060;-81
2023/06/08 06:31:01;;;;;;;18.00;5.53;;;14.50;99.90;;;;;;5041777;28;20037;-81
2023/06/08 06:33:27;;;;;;;13.38;5.07;;;13.40;99.90;;;;;;5038404;28;20045;-82
2023/06/08 06:35:53;;;;;;;16.77;5.05;;;13.40;99.90;;;;;;5038696;28;20064;-81
2023/06/08 06:38:19;;;;;;;13.80;5.40;;;13.40;99.90;;;;;;5046829;28;20041;-81
2023/06/08 06:40:47;;;;;;;13.27;5.20;;;13.40;99.90;;;;;;5015919;28;20045;-81
2023/06/08 06:43:12;;;;;;;15.77;4.88;;;13.60;99.90;;;;;;5023143;28;20437;-81
2023/06/08 06:45:38;;;;;;;9.73;4.30;;;13.50;99.90;;;;;;5037864;28;20053;-81
2023/06/08 06:48:04;;;;;;;16.77;5.10;;;13.50;99.90;;;;;;5038434;28;20036;-81
2023/06/08 06:50:31;;;;;;;17.85;5.28;;;13.50;99.90;;;;;;5042473;28;20538;-81
2023/06/08 06:52:56;;;;;;;17.55;5.47;;;13.80;99.90;;;;;;5035055;28;20485;-86
2023/06/08 06:55:22;;;;;;;16.08;4.75;;;13.60;99.90;;;;;;5021250;28;20041;-81
2023/06/08 06:57:48;;;;;;;11.50;4.95;;;13.60;99.90;;;;;;5028561;28;20268;-77
2023/06/08 07:00:14;;;;;;;16.70;5.25;;;13.70;99.90;;;;;;5006208;28;20505;-77
2023/06/08 07:02:40;;;;;;;17.27;5.00;;;13.70;99.90;;;;;;5026676;28;20050;-80
2023/06/08 07:05:39;;;;;;;15.18;4.75;;;13.80;99.90;;;;;;5092367;23;20053;-78
2023/06/08 07:08:21;;;;;;;19.20;5.23;;;;;;;;;;5010015;28;20053;-80
2023/06/08 07:10:46;;;;;;;16.75;4.80;;;13.90;99.90;;;;;;4990724;28;20041;-79
2023/06/08 07:13:12;;;;;;;12.02;5.13;;;14.00;99.90;;;;;;4992964;28;20099;-79
2023/06/08 07:15:41;;;;;;;15.43;5.53;;;13.90;99.90;;;;;;5008146;28;20088;-80
2023/06/08 07:18:07;;;;;;;14.93;4.40;;;14.00;99.90;;;;;;5009448;28;20030;-80
2023/06/08 07:20:32;;;;;;;16.30;5.15;;;14.00;99.90;;;;;;5008027;28;20531;-79
2023/06/08 07:22:59;;;;;;;10.75;4.38;;;14.10;99.90;;;;;;5009403;28;20041;-80
2023/06/08 07:25:28;;;;;;;14.85;5.05;;;14.00;99.90;;;;;;5010549;28;20092;-80
2023/06/08 07:27:53;;;;;;;17.17;5.13;;;15.50;99.90;;;;;;5008135;28;20041;-80
2023/06/08 07:30:19;;;;;;;11.27;5.00;;;14.10;99.90;;;;;;4993938;28;20053;-80
2023/06/08 07:32:45;;;;;;;11.00;4.63;;;14.10;99.90;;;;;;5000039;28;20048;-79
2023/06/08 07:35:11;;;;;;;14.65;4.00;;;14.40;99.90;;;;;;5011967;28;20038;-79
2023/06/08 07:37:37;;;;;;;15.32;4.78;;;14.20;99.90;;;;;;5006699;28;20030;-80
2023/06/08 07:40:07;;;;;;;15.07;5.20;;;14.30;99.90;;;;;;5006295;28;20056;-80
2023/06/08 07:42:33;;;;;;;12.95;4.57;;;14.30;99.90;;;;;;4986731;28;20107;-80
2023/06/08 07:45:00;;;;;;;23.20;5.32;;;14.30;99.90;;;;;;5007096;28;20480;-80
2023/06/08 07:47:41;;;;;;;14.85;4.32;;;15.50;99.90;;;;;;5011609;28;20050;-80
2023/06/08 07:50:07;;;;;;;11.18;4.80;;;15.50;99.90;;;;;;5007802;28;20100;-80
2023/06/08 07:52:33;;;;;;;12.35;5.13;;;14.40;99.90;;;;;;5009630;28;20046;-80
2023/06/08 07:54:58;;;;;;;14.20;4.32;;;14.50;99.90;;;;;;5009363;28;20431;-80
2023/06/08 07:57:24;;;;;;;16.02;4.28;;;14.60;99.90;;;;;;5008951;28;20042;-80
2023/06/08 07:59:50;;;;;;;10.10;4.32;;;15.00;99.90;;;;;;5007559;28;20396;-79
2023/06/08 08:02:16;;;;;;;9.43;4.15;;;14.70;99.90;;;;;;5008366;28;20047;-79
2023/06/08 08:04:41;;;;;;;13.32;4.63;;;15.60;99.90;;;;;;4988265;28;20097;-79
2023/06/08 08:07:07;;;;;;;19.30;4.50;;;14.80;99.90;;;;;;4968569;28;20601;-76
2023/06/08 08:09:33;;;;;;;15.75;4.63;;;14.90;99.90;;;;;;4985513;28;20101;-76
2023/06/08 08:11:59;;;;;;;16.73;5.05;;;14.80;99.90;;;;;;4983676;28;20035;-78
2023/06/08 08:14:25;;;;;;;12.70;5.28;;;15.00;99.90;;;;;;4949722;28;20082;-79
2023/06/08 08:16:51;;;;;;;22.30;10.15;;;14.90;99.90;;;;;;4983723;28;20046;-81
2023/06/08 08:19:17;;;;;;;14.85;5.35;;;15.70;99.90;;;;;;4984885;28;20478;-81
2023/06/08 08:21:42;;;;;;;14.70;5.18;;;14.90;99.90;;;;;;4966860;28;20105;-81
2023/06/08 08:24:09;;;;;;;16.65;4.93;;;15.40;99.90;;;;;;4988355;28;20405;-80
2023/06/08 08:26:40;;;;;;;15.27;5.25;;;15.00;99.90;;;;;;4986489;28;20105;-81
2023/06/08 08:29:06;;;;;;;19.20;6.15;;;15.10;99.90;;;;;;4986276;28;20540;-82
2023/06/08 08:31:32;;;;;;;11.45;4.32;;;16.20;99.90;;;;;;4977627;28;20046;-80
2023/06/08 08:33:57;;;;;;;12.00;4.97;;;15.20;99.90;;;;;;4985873;28;20039;-81
2023/06/08 08:36:23;;;;;;;12.07;5.53;;;15.20;99.90;;;;;;4986551;28;20077;-81
2023/06/08 08:38:48;;;;;;;11.63;5.60;;;15.30;99.90;;;;;;4985418;28;20441;-80
2023/06/08 08:41:17;;;;;;;15.27;5.50;;;17.10;99.90;;;;;;4986091;28;20101;-80
2023/06/08 08:43:57;;;;;;;17.90;5.32;;;16.10;99.90;;;;;;4965588;28;20085;-80
2023/06/08 08:46:23;;;;;;;11.68;4.78;;;15.50;99.90;;;;;;4982986;28;20058;-80
2023/06/08 08:48:53;;;;;;;14.88;4.88;;;15.50;99.90;;;;;;4984971;28;20030;-81
2023/06/08 08:51:19;;;;;;;10.80;4.72;;;15.60;99.90;;;;;;4985846;28;20050;-80
2023/06/08 08:53:48;;;;;;;15.20;5.15;;;16.60;99.90;;;;;;4964209;28;20141;-80
2023/06/08 08:56:20;;;;;;;19.05;5.25;;;15.80;99.90;;;;;;4982563;28;20803;-80
2023/06/08 08:58:53;;;;;;;12.23;4.32;;;15.70;99.90;;;;;;4985869;28;20034;-80
2023/06/08 09:01:19;;;;;;;14.45;4.60;;;15.70;99.90;;;;;;4985576;28;20494;-81
2023/06/08 09:03:46;;;;;;;13.13;4.38;;;15.80;99.90;;;;;;4982496;28;20042;-80
2023/06/08 09:06:11;;;;;;;13.50;4.57;;;15.90;99.90;;;;;;5003479;28;20058;-81
2023/06/08 09:08:38;;;;;;;14.05;4.05;;;16.90;99.90;;;;;;5011549;28;20493;-81
2023/06/08 09:11:06;;;;;;;14.65;4.65;;;15.90;99.90;;;;;;5013976;28;20034;-81
2023/06/08 09:13:34;;;;;;;11.68;4.30;;;16.00;99.90;;;;;;4995607;28;20046;-80
2023/06/08 09:16:17;;;;;;;14.27;4.78;;;16.00;99.90;;;;;;5013357;28;20042;-81
2023/06/08 09:18:44;;;;;;;18.38;3.85;;;16.10;99.90;;;;;;5016690;28;20050;-81
2023/06/08 09:21:23;;;;;;;12.38;4.40;;;16.60;99.90;;;;;;5021928;28;20625;-81
2023/06/08 09:24:18;;;;;;;15.80;4.07;;;16.20;99.90;;;;;;5017148;28;20041;-80
2023/06/08 09:26:45;;;;;;;12.02;4.20;;;16.30;99.90;;;;;;5013515;28;20240;-81
2023/06/08 09:29:15;;;;;;;15.35;4.50;;;16.50;99.90;;;;;;4979206;28;20068;-81
2023/06/08 09:32:02;;;;;;;12.77;4.18;;;16.40;99.90;;;;;;5013470;28;20439;-81
2023/06/08 09:34:33;;;;;;;12.88;4.47;;;17.10;99.90;;;;;;5013055;28;20034;-80
2023/06/08 09:37:10;;;;;;;11.82;4.40;;;16.50;99.90;;;;;;5012324;28;20077;-81
2023/06/08 09:39:40;;;;;;;14.57;4.90;;;16.50;99.90;;;;;;5011431;28;20050;-81
2023/06/08 09:42:06;;;;;;;13.57;4.45;;;16.50;99.90;;;;;;5013317;28;20175;-80
2023/06/08 09:44:32;;;;;;;12.02;4.72;;;16.50;99.90;;;;;;5011743;28;20049;-80
2023/06/08 09:46:57;;;;;;;17.55;5.00;;;17.20;99.90;;;;;;4995579;28;20218;-80
2023/06/08 09:49:23;;;;;;;11.52;4.43;;;16.60;99.90;;;;;;5011725;28;20034;-81
2023/06/08 09:51:51;;;;;;;12.88;5.05;;;16.70;99.90;;;;;;5011897;28;20054;-80
2023/06/08 09:54:18;;;;;;;11.98;4.07;;;16.80;99.90;;;;;;5013854;28;20401;-82
2023/06/08 09:56:53;;;;;;;10.48;3.72;;;16.90;99.90;;;;;;5013752;28;20116;-81
2023/06/08 09:59:22;;;;;;;10.65;3.75;;;16.90;99.90;;;;;;5010885;28;20405;-81
2023/06/08 10:01:55;;;;;;;13.75;4.05;;;17.30;99.90;;;;;;5012479;28;20049;-80
2023/06/08 10:04:31;;;;;;;13.45;4.60;;;17.50;99.90;;;;;;5011492;28;20573;-80
2023/06/08 10:07:02;;;;;;;12.73;5.10;;;17.10;99.90;;;;;;5004400;28;20069;-81
2023/06/08 10:09:31;;;;;;;13.23;3.88;;;18.10;99.90;;;;;;5012250;28;20057;-80
2023/06/08 10:11:59;;;;;;;10.38;3.83;;;17.30;99.90;;;;;;5003566;28;20053;-80
2023/06/08 10:14:28;;;;;;;10.30;4.00;;;17.30;99.90;;;;;;5012068;28;20069;-80
2023/06/08 10:16:56;;;;;;;11.55;4.20;;;17.40;99.90;;;;;;5012835;28;20401;-79
2023/06/08 10:19:23;;;;;;;11.02;4.28;;;17.50;99.90;;;;;;4995703;28;20046;-80
2023/06/08 10:21:52;;;;;;;12.35;4.10;;;17.60;99.90;;;;;;5012024;28;20046;-81
2023/06/08 10:24:23;;;;;;;14.25;4.13;;;17.60;99.90;;;;;;4994697;28;20045;-81
2023/06/08 10:26:50;;;;;;;8.40;3.75;;;17.60;99.90;;;;;;5010385;28;20152;-81
2023/06/08 10:29:17;;;;;;;10.63;3.42;;;17.70;99.90;;;;;;5012730;28;20049;-81
2023/06/08 10:31:47;;;;;;;12.07;3.63;;;18.50;99.90;;;;;;5011519;28;20425;-81
2023/06/08 10:34:15;;;;;;;10.07;3.92;;;17.90;99.90;;;;;;5011556;28;20048;-81
2023/06/08 10:36:42;;;;;;;10.55;3.50;;;18.90;99.90;;;;;;5010728;28;20462;-81
2023/06/08 10:39:16;;;;;;;9.77;3.63;;;18.00;99.90;;;;;;4977691;28;20049;-81
2023/06/08 10:41:46;;;;;;;8.48;2.90;;;18.00;99.90;;;;;;5017921;28;20042;-81
2023/06/08 10:44:36;;;;;;;13.88;3.80;;;18.20;99.90;;;;;;5012158;28;20770;-80
2023/06/08 10:47:06;;;;;;;10.65;3.50;;;18.50;99.90;;;;;;5003892;28;20046;-81
2023/06/08 10:49:38;;;;;;;15.88;5.90;;;18.30;99.90;;;;;;5009543;28;20061;-80
2023/06/08 10:52:10;;;;;;;8.77;3.78;;;18.40;99.90;;;;;;5002868;28;20080;-81
2023/06/08 10:54:57;;;;;;;8.85;3.70;;;18.40;99.90;;;;;;4994910;28;20450;-79
2023/06/08 10:57:46;;;;;;;14.57;4.05;;;18.40;99.90;;;;;;5006650;28;20042;-80
2023/06/08 11:00:28;;;;;;;11.02;4.05;;;18.40;99.90;;;;;;5005201;28;20042;-81
2023/06/08 11:03:00;;;;;;;12.48;4.07;;;18.60;99.90;;;;;;5012502;28;20053;-81
2023/06/08 11:05:34;;;;;;;11.55;4.20;;;18.70;99.90;;;;;;5017985;28;20053;-81
2023/06/08 11:08:00;;;;;;;;;;;18.80;99.90;;;;;;5019791;28;20049;-81
2023/06/08 11:10:27;;;;;;;8.93;3.60;;;18.90;99.90;;;;;;5012383;28;19925;-81
2023/06/08 11:12:54;;;;;;;8.80;3.88;;;19.00;99.90;;;;;;4993912;28;20038;-81
2023/06/08 11:15:20;;;;;;;9.48;3.47;;;19.10;99.90;;;;;;5010603;28;20409;-79
2023/06/08 11:17:55;;;;;;;10.02;3.20;;;19.20;99.90;;;;;;5010259;28;20042;-82
2023/06/08 11:20:27;;;;;;;10.75;4.13;;;19.30;99.90;;;;;;5009738;28;20050;-80
2023/06/08 11:22:53;;;;;;;11.60;3.72;;;19.40;99.90;;;;;;5010472;28;20387;-81
2023/06/08 11:25:20;;;;;;;13.73;3.90;;;19.50;99.90;;;;;;5010638;28;20049;-81
2023/06/08 11:27:46;;;;;;;11.32;3.72;;;19.60;99.90;;;;;;5009696;28;20046;-80
2023/06/08 11:30:19;;;;;;;6.97;3.03;;;19.70;99.90;;;;;;5009235;28;20496;-82
2023/06/08 11:32:52;;;;;;;10.38;5.45;;;20.00;99.90;;;;;;5010857;28;20128;-81
2023/06/08 11:35:18;;;;;;;24.33;17.00;;;19.90;99.90;;;;;;5010413;28;20034;-81
2023/06/08 11:37:44;;;;;;;9.60;4.40;;;20.00;99.90;;;;;;5008674;28;20482;-81
2023/06/08 11:40:14;;;;;;;9.98;3.65;;;20.00;99.90;;;;;;5008847;28;20049;-80
2023/06/08 11:42:40;;;;;;;9.82;4.30;;;20.20;99.90;;;;;;5008528;28;20046;-80
2023/06/08 11:45:08;;;;;;;8.80;3.75;;;20.30;99.90;;;;;;5012589;28;20049;-81
2023/06/08 11:47:34;;;;;;;11.88;3.90;;;20.40;99.90;;;;;;5009598;28;20125;-81
2023/06/08 11:50:01;;;;;;;11.68;4.25;;;20.60;99.90;;;;;;5008508;28;20446;-81
2023/06/08 11:52:30;;;;;;;8.50;3.75;;;20.50;99.90;;;;;;5011124;28;20393;-81
2023/06/08 11:54:59;;;;;;;11.00;3.67;;;20.60;99.90;;;;;;5010394;28;20540;-81
2023/06/08 11:57:40;;;;;;;11.13;3.70;;;20.70;99.90;;;;;;5010947;28;20065;-81
2023/06/08 12:00:14;;;;;;;8.25;3.42;;;21.30;99.90;;;;;;5011745;28;20088;-80
2023/06/08 12:02:40;;;;;;;11.20;3.20;;;20.90;99.90;;;;;;5010703;28;20096;-80
2023/06/08 12:05:12;;;;;;;8.77;3.10;;;21.00;99.90;;;;;;5010119;28;20062;-80
2023/06/08 12:07:38;;;;;;;7.68;3.22;;;21.10;99.90;;;;;;5011313;28;20050;-80
2023/06/08 12:10:05;;;;;;;9.55;3.50;;;21.30;99.90;;;;;;4993888;28;20049;-81
2023/06/08 12:12:31;;;;;;;7.30;2.60;;;21.20;99.90;;;;;;4995078;28;20042;-80
2023/06/08 12:14:57;;;;;;;6.07;2.60;;;21.30;99.90;;;;;;5012841;28;20417;-81
2023/06/08 12:17:27;;;;;;;6.95;2.72;;;21.40;99.90;;;;;;5010841;28;20045;-81
2023/06/08 12:19:54;;;;;;;7.90;2.90;;;21.40;99.90;;;;;;5009085;28;20050;-80
2023/06/08 12:22:19;;;;;;;5.45;2.63;;;21.70;99.90;;;;;;5011954;28;20057;-80
2023/06/08 12:24:46;;;;;;;11.27;3.33;;;21.60;99.90;;;;;;5011248;28;20057;-80
2023/06/08 12:27:14;;;;;;;12.68;3.10;;;21.70;99.90;;;;;;4963802;28;20041;-81
2023/06/08 12:29:41;;;;;;;13.98;3.42;;;21.80;99.90;;;;;;4996436;28;20049;-82
2023/06/08 12:34:59;;;;;;;9.10;3.60;;;21.80;99.90;;;;;;5020155;23;20054;-82
2023/06/08 12:37:49;;;;;;;9.25;3.03;;;21.90;99.90;;;;;;5045755;28;20068;-83
2023/06/08 12:40:31;;;;;;;7.50;2.83;;;22.00;99.90;;;;;;5040467;28;20030;-81
2023/06/08 12:43:01;;;;;;;8.75;2.70;;;22.10;99.90;;;;;;5069538;28;20075;-80
2023/06/08 12:45:55;;;;;;;6.57;2.80;;;22.20;99.90;;;;;;5053682;28;20041;-82